Time;durP1;ratioP1;P1;durP2;ratioP2;P2;SDS_P1;SDS_P2;PMS_P1;PMS_P2;Temp;Humidity;BMP_temperature;BMP_pressure;BME280_temperature;BME280_humidity;BME280_pressure;Samples;Min_cycle;Max_cycle;Signal;HPM_P1;HPM_P2
2022/11/20 00:01:57;;;;;;;21.55;11.35;;;;;;;-3.34;100.00;99062.72;5152848;27;20054;-52
2022/11/20 00:04:23;;;;;;;21.25;10.38;;;;;;;-3.17;100.00;99081.91;5152748;27;20133;-48
2022/11/20 00:06:50;;;;;;;23.80;12.32;;;;;;;-3.28;100.00;99077.69;5152588;27;20501;-48
2022/11/20 00:09:17;;;;;;;20.90;11.48;;;;;;;-3.61;100.00;99077.28;5152840;27;20461;-49
2022/11/20 00:11:43;;;;;;;22.55;12.23;;;;;;;-3.55;100.00;99123.63;5152479;27;20501;-48
2022/11/20 00:14:10;;;;;;;24.08;11.98;;;;;;;-3.86;100.00;99153.19;5152569;27;20432;-50
2022/11/20 00:16:36;;;;;;;28.58;12.48;;;;;;;-3.68;100.00;99221.47;5152680;27;20046;-47
2022/11/20 00:19:02;;;;;;;21.38;11.68;;;;;;;-3.48;100.00;99268.09;5152858;27;20501;-48
2022/11/20 00:21:29;;;;;;;24.30;10.93;;;;;;;-3.33;100.00;99265.38;5152339;27;20099;-48
2022/11/20 00:23:57;;;;;;;19.90;10.80;;;;;;;-3.23;100.00;99251.13;5152698;27;20051;-48
2022/11/20 00:26:26;;;;;;;22.85;11.10;;;;;;;-3.37;100.00;99216.84;5152305;27;20054;-47
2022/11/20 00:28:54;;;;;;;19.88;10.45;;;;;;;-3.40;100.00;99205.88;5152222;27;20051;-49
2022/11/20 00:31:20;;;;;;;18.90;10.80;;;;;;;-3.57;100.00;99172.13;5152483;27;20051;-51
2022/11/20 00:33:47;;;;;;;17.10;9.90;;;;;;;-3.55;100.00;99112.94;5152129;27;20049;-47
2022/11/20 00:36:15;;;;;;;14.82;7.40;;;;;;;-3.08;100.00;99066.06;5152346;27;20099;-48
2022/11/20 00:38:42;;;;;;;18.75;8.68;;;;;;;-3.08;100.00;98942.69;5152246;27;20050;-49
2022/11/20 00:41:10;;;;;;;16.55;8.35;;;;;;;-3.16;100.00;98844.09;5152190;27;20051;-52
2022/11/20 00:43:37;;;;;;;15.60;8.75;;;;;;;-3.14;100.00;98804.38;5150944;27;20106;-48
2022/11/20 00:46:06;;;;;;;13.50;7.55;;;;;;;-3.33;100.00;98754.19;5152164;27;20047;-47
2022/11/20 00:48:32;;;;;;;10.18;6.70;;;;;;;-3.36;100.00;98706.50;5151832;27;20050;-46
2022/11/20 00:50:59;;;;;;;14.73;7.55;;;;;;;-3.59;100.00;98667.88;5152304;27;20141;-48
2022/11/20 00:53:26;;;;;;;14.63;8.38;;;;;;;-3.52;100.00;98667.53;5152042;27;20050;-47
2022/11/20 00:55:56;;;;;;;15.15;7.95;;;;;;;-3.65;100.00;98623.47;5151957;27;20046;-48
2022/11/20 00:58:23;;;;;;;13.63;6.97;;;;;;;-3.18;100.00;98595.03;5151972;27;20531;-51
2022/11/20 01:00:51;;;;;;;12.13;6.93;;;;;;;-3.13;100.00;98549.38;5151763;27;20050;-47
2022/11/20 01:03:17;;;;;;;11.55;7.18;;;;;;;-3.33;100.00;98504.91;5152138;27;20063;-47
2022/11/20 01:05:43;;;;;;;12.90;7.43;;;;;;;-3.25;100.00;98513.38;5151827;27;20062;-48
2022/11/20 01:08:10;;;;;;;15.65;7.97;;;;;;;-3.01;100.00;98484.56;5151673;27;20050;-48
2022/11/20 01:10:37;;;;;;;13.43;8.07;;;;;;;-3.05;100.00;98429.94;5151711;27;20046;-48
2022/11/20 01:15:50;;;;;;;13.38;7.05;;;;;;;-3.20;100.00;98431.00;5133561;27;20051;-47
2022/11/20 01:18:17;;;;;;;13.35;7.97;;;;;;;-3.45;100.00;98493.81;5151769;27;20058;-46
2022/11/20 01:20:43;;;;;;;13.65;7.80;;;;;;;-3.24;100.00;98513.06;5151372;27;20462;-48
2022/11/20 01:23:09;;;;;;;11.80;6.88;;;;;;;-3.28;100.00;98466.50;5151575;27;20509;-49
2022/11/20 01:25:36;;;;;;;9.55;6.50;;;;;;;-3.23;100.00;98452.19;5151582;27;20141;-47
2022/11/20 01:28:02;;;;;;;12.23;6.78;;;;;;;-3.33;100.00;98462.00;5151334;27;20183;-48
2022/11/20 01:30:29;;;;;;;13.32;7.45;;;;;;;-3.06;100.00;98449.81;5151491;27;20042;-47
2022/11/20 01:32:56;;;;;;;11.75;6.57;;;;;;;-2.98;100.00;98419.63;5151461;27;20509;-46
2022/11/20 01:35:23;;;;;;;11.63;7.13;;;;;;;-3.63;100.00;98427.59;5151365;27;20137;-47
2022/11/20 01:37:50;;;;;;;11.25;7.22;;;;;;;-3.17;100.00;98499.28;5151240;27;20110;-48
2022/11/20 01:40:17;;;;;;;17.42;7.55;;;;;;;-2.99;100.00;98476.25;5151243;27;20049;-47
2022/11/20 01:46:12;;;;;;;13.32;7.07;;;;;;;-3.44;100.00;98478.50;5151284;27;20050;-47
2022/11/20 01:48:44;;;;;;;11.38;6.22;;;;;;;-3.73;100.00;98490.16;5067150;28;20713;-47
2022/11/20 01:51:17;;;;;;;11.52;6.75;;;;;;;-3.38;100.00;98513.00;5139811;27;20082;-47
2022/11/20 01:53:44;;;;;;;12.15;6.53;;;;;;;-3.48;100.00;98510.47;5151065;27;20159;-49
2022/11/20 01:56:13;;;;;;;12.20;6.82;;;;;;;-3.31;100.00;98526.84;5153431;27;20057;-47
2022/11/20 01:58:44;;;;;;;12.27;7.15;;;;;;;-3.29;100.00;98505.13;5154877;27;20118;-47
2022/11/20 02:01:11;;;;;;;13.85;7.68;;;;;;;-3.62;100.00;98485.47;5154986;27;20090;-48
2022/11/20 02:03:39;;;;;;;12.60;6.85;;;;;;;-3.62;100.00;98488.16;5154864;27;20205;-47
2022/11/20 02:06:13;;;;;;;13.02;7.88;;;;;;;-3.16;100.00;98485.63;5155206;27;20153;-47
2022/11/20 02:08:39;;;;;;;11.10;7.22;;;;;;;-3.16;100.00;98474.09;5154568;27;20058;-50
2022/11/20 02:11:05;;;;;;;13.05;6.88;;;;;;;-3.53;100.00;98466.84;5154500;27;20068;-47
2022/11/20 02:13:43;;;;;;;12.98;7.05;;;;;;;-3.70;100.00;98460.09;5154429;27;20043;-47
2022/11/20 02:16:14;;;;;;;13.30;7.35;;;;;;;-3.48;100.00;98474.81;5154776;27;20046;-48
2022/11/20 02:18:42;;;;;;;12.60;6.72;;;;;;;-3.39;100.00;98457.03;5154622;27;20075;-50
2022/11/20 02:21:20;;;;;;;11.60;7.45;;;;;;;-3.60;100.00;98443.09;5154894;27;20537;-48
2022/11/20 02:24:00;;;;;;;16.67;7.43;;;;;;;-3.89;100.00;98454.75;5154232;27;20137;-49
2022/11/20 02:26:28;;;;;;;11.23;6.65;;;;;;;-3.73;100.00;98470.59;5154188;27;20527;-49
2022/11/20 02:28:55;;;;;;;16.58;8.65;;;;;;;-3.52;100.00;98488.00;5154392;27;20490;-48
2022/11/20 02:31:21;;;;;;;11.52;6.45;;;;;;;-3.94;100.00;98475.41;5154148;27;20580;-46
2022/11/20 02:33:47;;;;;;;13.18;7.35;;;;;;;-3.48;100.00;98480.19;5154224;27;20051;-47
2022/11/20 02:36:16;;;;;;;10.07;6.38;;;;;;;-3.51;100.00;98465.47;5154162;27;20511;-47
2022/11/20 02:38:44;;;;;;;13.27;7.57;;;;;;;-3.61;100.00;98450.34;5154482;27;20053;-47
2022/11/20 02:41:11;;;;;;;14.88;7.53;;;;;;;-3.56;100.00;98466.34;5153904;27;20138;-47
2022/11/20 02:43:37;;;;;;;16.58;6.85;;;;;;;-3.32;100.00;98460.13;5154364;27;20047;-48
2022/11/20 02:46:03;;;;;;;12.98;7.20;;;;;;;-3.32;100.00;98441.38;5154239;27;20130;-47
2022/11/20 02:48:29;;;;;;;11.65;6.60;;;;;;;-4.00;100.00;98436.41;5153804;27;20557;-47
2022/11/20 02:50:56;;;;;;;15.90;8.18;;;;;;;-3.78;100.00;98469.59;5154150;27;20046;-47
2022/11/20 02:53:22;;;;;;;12.75;7.35;;;;;;;-3.66;100.00;98476.41;5153749;27;20462;-48
2022/11/20 02:55:48;;;;;;;12.73;7.38;;;;;;;-3.67;100.00;98462.19;5153919;27;20050;-49
2022/11/20 02:58:15;;;;;;;11.40;7.38;;;;;;;-3.54;100.00;98458.00;5153884;27;20069;-47
2022/11/20 03:00:42;;;;;;;14.50;7.72;;;;;;;-3.42;100.00;98452.25;5153932;27;20049;-48
2022/11/20 03:03:08;;;;;;;15.18;7.00;;;;;;;-3.29;100.00;98402.47;5154040;27;20557;-47
2022/11/20 03:05:34;;;;;;;14.63;6.95;;;;;;;-3.33;100.00;98386.97;5154065;27;20057;-47
2022/11/20 03:08:00;;;;;;;12.55;7.38;;;;;;;-3.38;100.00;98389.72;5152672;27;20050;-48
2022/11/20 03:10:27;;;;;;;13.07;7.60;;;;;;;-3.32;100.00;98387.75;5153966;27;20473;-48
2022/11/20 03:12:54;;;;;;;12.32;7.32;;;;;;;-3.71;100.00;98399.59;5153459;27;20085;-49
2022/11/20 03:15:21;;;;;;;11.18;6.88;;;;;;;-4.03;100.00;98417.16;5153644;27;20047;-48
2022/11/20 03:17:48;;;;;;;9.88;5.80;;;;;;;-3.84;100.00;98432.44;5153579;27;20057;-47
2022/11/20 03:20:14;;;;;;;10.48;5.88;;;;;;;-3.50;100.00;98410.78;5153427;27;20081;-47
2022/11/20 03:22:40;;;;;;;11.05;6.68;;;;;;;-3.50;100.00;98385.88;5153464;27;20050;-48
2022/11/20 03:25:07;;;;;;;10.50;6.20;;;;;;;-3.73;100.00;98384.88;5153488;27;20050;-48
2022/11/20 03:27:34;;;;;;;12.60;6.93;;;;;;;-3.58;100.00;98395.38;5153373;27;20082;-47
2022/11/20 03:30:01;;;;;;;13.13;6.50;;;;;;;-3.74;100.00;98394.00;5153168;27;20054;-51
2022/11/20 03:32:28;;;;;;;14.70;7.03;;;;;;;-3.61;100.00;98402.13;5153336;27;20046;-47
2022/11/20 03:34:54;;;;;;;9.68;5.95;;;;;;;-3.78;100.00;98404.50;5153201;27;20046;-47
2022/11/20 03:37:21;;;;;;;11.07;6.75;;;;;;;-3.76;100.00;98406.91;5153358;27;20051;-49
2022/11/20 03:39:47;;;;;;;11.13;6.57;;;;;;;-3.61;100.00;98414.72;5153048;27;20047;-48
2022/11/20 03:44:54;;;;;;;10.82;6.63;;;;;;;-3.75;100.00;98421.88;5152256;27;20512;-51
2022/11/20 03:47:20;;;;;;;12.55;7.13;;;;;;;-3.71;100.00;98415.66;5153242;27;20046;-50
2022/11/20 03:49:47;;;;;;;14.68;8.45;;;;;;;-3.71;100.00;98423.69;5153281;27;20089;-48
2022/11/20 03:52:14;;;;;;;15.07;7.65;;;;;;;-3.64;100.00;98423.34;5152917;27;20118;-47
2022/11/20 03:54:40;;;;;;;15.35;8.20;;;;;;;-3.96;100.00;98430.19;5153128;27;20470;-48
2022/11/20 03:57:06;;;;;;;15.40;7.75;;;;;;;-3.83;100.00;98434.84;5152928;27;20134;-47
2022/11/20 03:59:33;;;;;;;13.77;7.80;;;;;;;-4.45;100.00;98454.59;5152819;27;20050;-49
2022/11/20 04:01:59;;;;;;;11.90;7.38;;;;;;;-4.64;100.00;98494.63;5152688;27;20057;-50
2022/11/20 04:04:25;;;;;;;14.63;7.68;;;;;;;-4.34;100.00;98493.53;5152987;27;20043;-49
2022/11/20 04:06:52;;;;;;;13.50;7.63;;;;;;;-4.33;100.00;98479.88;5152670;27;20047;-48
2022/11/20 04:09:19;;;;;;;14.07;8.55;;;;;;;-4.23;100.00;98488.84;5152501;27;20084;-46
2022/11/20 04:11:45;;;;;;;16.05;8.25;;;;;;;-4.60;100.00;98492.97;5152788;27;20050;-48
2022/11/20 04:14:14;;;;;;;15.27;7.82;;;;;;;-4.37;100.00;98528.88;5152737;27;20588;-47
2022/11/20 04:16:41;;;;;;;12.60;7.95;;;;;;;-4.27;100.00;98510.84;5152485;27;20106;-48
2022/11/20 04:19:11;;;;;;;16.48;8.77;;;;;;;-4.03;100.00;98510.06;5152533;27;20493;-47
2022/11/20 04:21:38;;;;;;;13.80;7.82;;;;;;;-4.48;100.00;98500.63;5152709;27;20402;-47
2022/11/20 04:24:06;;;;;;;14.82;8.40;;;;;;;-4.43;100.00;98509.41;5152364;27;20051;-48
2022/11/20 04:26:32;;;;;;;16.88;8.68;;;;;;;-4.52;100.00;98521.81;5152319;27;20262;-48
2022/11/20 04:29:01;;;;;;;13.30;7.63;;;;;;;-4.49;100.00;98531.94;5152329;27;20051;-48
2022/11/20 04:31:29;;;;;;;12.52;8.23;;;;;;;-4.34;100.00;98520.28;5152664;27;20047;-49
2022/11/20 04:33:55;;;;;;;12.77;7.38;;;;;;;-4.02;100.00;98498.28;5152170;27;20141;-48
2022/11/20 04:36:24;;;;;;;14.77;8.38;;;;;;;-4.07;100.00;98480.38;5152075;27;20447;-48
2022/11/20 04:38:51;;;;;;;12.38;7.95;;;;;;;-4.08;100.00;98473.44;5152270;27;20051;-49
2022/11/20 04:41:20;;;;;;;14.13;7.45;;;;;;;-4.17;100.00;98461.75;5152078;27;20050;-47
2022/11/20 04:43:48;;;;;;;16.02;8.27;;;;;;;-4.61;100.00;98472.66;5152249;27;20134;-47
2022/11/20 04:46:15;;;;;;;11.63;6.93;;;;;;;-4.69;100.00;98487.44;5152026;27;20700;-47
2022/11/20 04:48:42;;;;;;;14.63;7.80;;;;;;;-4.35;100.00;98502.66;5152076;27;20081;-47
2022/11/20 04:51:08;;;;;;;13.40;7.70;;;;;;;-4.21;100.00;98497.41;5152006;27;20055;-47
2022/11/20 04:53:34;;;;;;;12.65;7.70;;;;;;;-4.05;100.00;98466.72;5151951;27;20043;-47
2022/11/20 04:56:01;;;;;;;13.68;8.23;;;;;;;-4.33;100.00;98463.81;5151700;27;20474;-49
2022/11/20 04:58:28;;;;;;;14.00;8.45;;;;;;;-4.66;100.00;98481.53;5151547;27;20102;-50
2022/11/20 05:01:01;;;;;;;13.80;8.75;;;;;;;-4.26;100.00;98528.50;5151558;27;20051;-50
2022/11/20 05:03:27;;;;;;;16.15;9.07;;;;;;;-4.55;100.00;98531.19;5151766;27;20051;-47
2022/11/20 05:05:54;;;;;;;13.82;8.32;;;;;;;-4.81;100.00;98557.34;5151693;27;20053;-51
2022/11/20 05:08:20;;;;;;;14.27;6.95;;;;;;;-4.79;100.00;98581.94;5151516;27;20046;-48
2022/11/20 05:10:46;;;;;;;16.70;8.70;;;;;;;-4.83;100.00;98612.97;5151924;27;20133;-47
2022/11/20 05:13:13;;;;;;;15.40;8.32;;;;;;;-4.52;100.00;98637.63;5151551;27;20525;-48
2022/11/20 05:15:40;;;;;;;14.32;7.95;;;;;;;-4.85;100.00;98606.31;5151538;27;20197;-48
2022/11/20 05:18:07;;;;;;;16.17;7.97;;;;;;;-5.04;100.00;98590.91;5151645;27;20134;-50
2022/11/20 05:20:33;;;;;;;15.45;7.72;;;;;;;-5.09;100.00;98593.63;5151599;27;20051;-48
2022/11/20 05:22:59;;;;;;;15.48;7.75;;;;;;;-4.38;100.00;98596.88;5151523;27;20057;-49
2022/11/20 05:25:26;;;;;;;17.45;8.35;;;;;;;-4.33;100.00;98562.84;5151861;27;20091;-51
2022/11/20 05:27:53;;;;;;;15.98;8.93;;;;;;;-4.55;100.00;98543.75;5151185;27;20046;-49
2022/11/20 05:30:19;;;;;;;12.85;7.70;;;;;;;-4.68;100.00;98558.56;5150597;27;20054;-50
2022/11/20 05:32:46;;;;;;;17.75;8.50;;;;;;;-4.54;100.00;98567.53;5151437;27;20187;-47
2022/11/20 05:35:12;;;;;;;14.93;8.43;;;;;;;-4.39;100.00;98573.88;5151220;27;20138;-51
2022/11/20 05:37:38;;;;;;;16.25;9.00;;;;;;;-4.73;100.00;98572.00;5151519;27;20485;-48
2022/11/20 05:40:06;;;;;;;16.40;8.18;;;;;;;-5.15;100.00;98589.38;5151292;27;20429;-47
2022/11/20 05:42:35;;;;;;;15.57;8.43;;;;;;;-4.98;100.00;98643.25;5151294;27;20473;-49
2022/11/20 05:45:04;;;;;;;13.90;8.65;;;;;;;-4.55;100.00;98697.03;5151327;27;20138;-46
2022/11/20 05:47:34;;;;;;;14.02;8.43;;;;;;;-4.85;100.00;98683.84;5151133;27;20054;-47
2022/11/20 05:50:01;;;;;;;14.80;7.57;;;;;;;-5.14;100.00;98681.84;5151024;27;20057;-49
2022/11/20 05:52:28;;;;;;;13.32;7.95;;;;;;;-5.13;100.00;98728.06;5151033;27;20047;-47
2022/11/20 05:54:55;;;;;;;15.55;8.52;;;;;;;-5.14;100.00;98763.88;5150881;27;20099;-47
2022/11/20 05:57:21;;;;;;;14.43;8.23;;;;;;;-5.31;100.00;98802.41;5150860;27;20070;-48
2022/11/20 05:59:47;;;;;;;13.30;7.10;;;;;;;-5.15;100.00;98832.56;5150975;27;20047;-49
2022/11/20 06:02:13;;;;;;;14.70;7.93;;;;;;;-4.98;100.00;98849.13;5150773;27;20053;-49
2022/11/20 06:04:43;;;;;;;13.25;7.22;;;;;;;-5.21;100.00;98796.25;5151023;27;20043;-48
2022/11/20 06:07:11;;;;;;;11.85;7.82;;;;;;;-4.78;100.00;98800.13;5150800;27;20058;-47
2022/11/20 06:09:37;;;;;;;12.85;8.30;;;;;;;-5.09;100.00;98745.97;5150866;27;20065;-50
2022/11/20 06:12:04;;;;;;;14.85;7.32;;;;;;;-4.59;100.00;98738.00;5150872;27;20058;-48
2022/11/20 06:14:30;;;;;;;16.77;8.50;;;;;;;-4.93;100.00;98689.75;5150864;27;20047;-49
2022/11/20 06:16:56;;;;;;;13.80;7.82;;;;;;;-5.08;100.00;98704.78;5150727;27;20061;-48
2022/11/20 06:19:23;;;;;;;10.25;6.63;;;;;;;-5.44;100.00;98725.47;5150689;27;20089;-48
2022/11/20 06:21:50;;;;;;;12.45;7.18;;;;;;;-5.08;100.00;98794.88;5150730;27;20058;-47
2022/11/20 06:24:17;;;;;;;14.43;8.93;;;;;;;-4.80;100.00;98812.16;5150831;27;20051;-48
2022/11/20 06:26:44;;;;;;;13.60;8.30;;;;;;;-4.53;100.00;98801.13;5150650;27;20520;-48
2022/11/20 06:29:10;;;;;;;14.13;8.13;;;;;;;-4.84;100.00;98779.03;5150508;27;20052;-49
2022/11/20 06:31:37;;;;;;;15.63;7.68;;;;;;;-5.47;100.00;98766.88;5150811;27;20184;-49
2022/11/20 06:34:04;;;;;;;17.05;8.52;;;;;;;-4.97;100.00;98848.03;5150652;27;20467;-50
2022/11/20 06:36:30;;;;;;;12.52;7.50;;;;;;;-5.15;100.00;98813.88;5150640;27;20464;-48
2022/11/20 06:38:57;;;;;;;15.35;7.47;;;;;;;-5.26;100.00;98769.53;5150527;27;20141;-48
2022/11/20 06:41:25;;;;;;;12.20;6.93;;;;;;;-5.30;100.00;98795.19;5150399;27;20050;-50
2022/11/20 06:43:51;;;;;;;12.65;7.03;;;;;;;-5.53;100.00;98793.88;5153895;27;20133;-48
2022/11/20 06:46:19;;;;;;;12.48;7.60;;;;;;;-5.36;100.00;98821.13;5153941;27;20069;-47
2022/11/20 06:48:46;;;;;;;12.90;6.97;;;;;;;-5.41;100.00;98820.31;5153819;27;20050;-48
2022/11/20 06:51:12;;;;;;;15.20;7.95;;;;;;;-5.26;100.00;98834.47;5153650;27;20054;-47
2022/11/20 06:53:39;;;;;;;17.95;7.85;;;;;;;-5.30;100.00;98819.22;5153954;27;20055;-49
2022/11/20 06:56:06;;;;;;;16.17;7.95;;;;;;;-5.19;100.00;98810.16;5153673;27;20075;-47
2022/11/20 06:58:35;;;;;;;18.80;8.05;;;;;;;-4.84;100.00;98821.81;5154008;27;20105;-47
2022/11/20 07:01:03;;;;;;;12.93;6.80;;;;;;;-5.49;100.00;98786.94;5153699;27;20046;-46
2022/11/20 07:03:30;;;;;;;15.00;7.90;;;;;;;-5.16;100.00;98795.41;5153857;27;20133;-46
2022/11/20 07:05:56;;;;;;;13.25;7.88;;;;;;;-5.09;100.00;98796.75;5153549;27;20093;-47
2022/11/20 07:08:23;;;;;;;15.52;7.97;;;;;;;-4.81;100.00;98789.19;5153495;27;20054;-48
2022/11/20 07:10:49;;;;;;;15.90;7.65;;;;;;;-4.66;100.00;98769.63;5153640;27;20054;-47
2022/11/20 07:13:15;;;;;;;15.32;7.75;;;;;;;-5.02;100.00;98740.34;5153555;27;20051;-48
2022/11/20 07:15:42;;;;;;;18.02;9.90;;;;;;;-4.57;100.00;98767.94;5153700;27;20051;-48
2022/11/20 07:18:09;;;;;;;16.90;8.43;;;;;;;-4.83;100.00;98752.03;5153188;27;20054;-47
2022/11/20 07:20:35;;;;;;;15.73;8.48;;;;;;;-4.80;100.00;98775.56;5153325;27;20168;-48
2022/11/20 07:23:01;;;;;;;17.58;9.27;;;;;;;-5.11;100.00;98790.06;5153526;27;20430;-47
2022/11/20 07:25:28;;;;;;;17.40;8.82;;;;;;;-5.28;100.00;98787.72;5153435;27;20043;-48
2022/11/20 07:27:57;;;;;;;20.65;9.68;;;;;;;-4.84;100.00;98825.28;5153335;27;20156;-49
2022/11/20 07:30:24;;;;;;;13.65;8.20;;;;;;;-5.14;100.00;98790.63;5153202;27;20506;-49
2022/11/20 07:32:52;;;;;;;12.93;7.97;;;;;;;-5.06;100.00;98812.25;5153478;27;20047;-49
2022/11/20 07:35:19;;;;;;;14.77;7.82;;;;;;;-5.16;100.00;98827.50;5153336;27;20414;-49
2022/11/20 07:37:45;;;;;;;13.32;8.68;;;;;;;-4.99;100.00;98836.03;5153195;27;20046;-51
2022/11/20 07:40:12;;;;;;;15.70;7.65;;;;;;;-5.12;100.00;98832.03;5153108;27;20051;-48
2022/11/20 07:42:39;;;;;;;13.25;6.57;;;;;;;-5.22;100.00;98808.00;5153111;27;20141;-52
2022/11/20 07:45:06;;;;;;;12.10;7.25;;;;;;;-4.83;100.00;98837.59;5153070;27;20046;-50
2022/11/20 07:47:35;;;;;;;12.05;6.03;;;;;;;-4.99;100.00;98793.25;5152892;27;20133;-50
2022/11/20 07:50:03;;;;;;;12.55;7.05;;;;;;;-5.04;100.00;98770.00;5152838;27;20137;-51
2022/11/20 07:52:29;;;;;;;12.18;7.00;;;;;;;-4.83;100.00;98775.28;5152687;27;20086;-48
2022/11/20 07:54:55;;;;;;;16.45;7.35;;;;;;;-4.99;100.00;98777.22;5152804;27;20050;-50
2022/11/20 07:57:22;;;;;;;13.73;7.78;;;;;;;-4.77;100.00;98799.03;5153041;27;20517;-49
2022/11/20 07:59:48;;;;;;;13.63;7.22;;;;;;;-5.10;100.00;98779.09;5152771;27;20145;-49
2022/11/20 08:02:14;;;;;;;14.52;7.65;;;;;;;-4.71;100.00;98818.56;5153043;27;20129;-49
2022/11/20 08:04:41;;;;;;;13.00;7.22;;;;;;;-4.11;100.00;98807.84;5152923;27;20057;-48
2022/11/20 08:07:07;;;;;;;15.00;7.60;;;;;;;-4.46;100.00;98740.06;5152765;27;20057;-51
2022/11/20 08:09:34;;;;;;;12.82;7.28;;;;;;;-4.81;100.00;98707.06;5152668;27;20065;-50
2022/11/20 08:14:44;;;;;;;12.23;6.80;;;;;;;-4.82;100.00;98670.72;5152676;27;20066;-48
2022/11/20 08:17:11;;;;;;;15.75;8.23;;;;;;;-4.48;100.00;98688.72;5152709;27;20051;-50
2022/11/20 08:19:37;;;;;;;17.88;8.20;;;;;;;-4.50;100.00;98656.91;5152448;27;20503;-48
2022/11/20 08:22:03;;;;;;;16.45;8.52;;;;;;;-3.97;100.00;98645.47;5152564;27;20100;-47
2022/11/20 08:24:30;;;;;;;12.48;7.55;;;;;;;-4.70;100.00;98614.22;5152518;27;20537;-48
2022/11/20 08:26:58;;;;;;;15.50;7.60;;;;;;;-4.39;100.00;98643.44;5152265;27;20054;-47
2022/11/20 08:29:24;;;;;;;16.13;8.85;;;;;;;-4.30;100.00;98623.00;5152514;27;20061;-46
2022/11/20 08:31:50;;;;;;;13.65;7.47;;;;;;;-4.48;100.00;98615.69;5152176;27;20046;-47
2022/11/20 08:34:17;;;;;;;16.85;8.57;;;;;;;-4.57;100.00;98626.16;5152380;27;20103;-47
2022/11/20 08:36:43;;;;;;;12.38;7.25;;;;;;;-4.50;100.00;98632.81;5152185;27;20050;-48
2022/11/20 08:39:12;;;;;;;13.75;7.85;;;;;;;-3.66;100.00;98629.13;5152294;27;20194;-47
2022/11/20 08:41:39;;;;;;;15.05;8.00;;;;;;;-3.35;100.00;98590.16;5152034;27;20145;-47
2022/11/20 08:44:07;;;;;;;14.38;7.35;;;;;;;-3.90;100.00;98551.41;5152033;27;20050;-48
2022/11/20 08:46:36;;;;;;;16.77;8.27;;;;;;;-3.67;100.00;98525.69;5152321;27;20046;-48
2022/11/20 08:49:03;;;;;;;16.05;8.63;;;;;;;-3.66;100.00;98519.28;5152042;27;20528;-50
2022/11/20 08:51:29;;;;;;;16.40;8.32;;;;;;;-4.05;100.00;98526.41;5152069;27;20075;-49
2022/11/20 08:53:55;;;;;;;17.13;9.18;;;;;;;-4.06;100.00;98526.72;5151895;27;20061;-50
2022/11/20 08:56:21;;;;;;;13.48;8.43;;;;;;;-4.23;100.00;98526.31;5152132;27;20057;-47
2022/11/20 08:58:50;;;;;;;16.10;8.43;;;;;;;-3.96;100.00;98560.59;5151984;27;20058;-48
2022/11/20 09:01:17;;;;;;;15.98;8.30;;;;;;;-3.97;100.00;98554.44;5151780;27;20552;-48
2022/11/20 09:03:43;;;;;;;12.63;7.45;;;;;;;-3.64;100.00;98550.03;5151732;27;20050;-48
2022/11/20 09:06:10;;;;;;;13.93;7.90;;;;;;;-3.91;100.00;98539.13;5150800;27;20139;-47
2022/11/20 09:08:36;;;;;;;13.02;7.20;;;;;;;-3.78;100.00;98515.13;5151379;27;20061;-47
2022/11/20 09:11:03;;;;;;;16.20;8.50;;;;;;;-3.51;100.00;98512.91;5151642;27;20047;-46
2022/11/20 09:13:30;;;;;;;16.23;8.05;;;;;;;-4.14;100.00;98489.84;5151826;27;20133;-47
2022/11/20 09:15:58;;;;;;;16.95;8.05;;;;;;;-3.79;100.00;98504.69;5151582;27;20042;-47
2022/11/20 09:18:25;;;;;;;19.27;8.63;;;;;;;-3.62;100.00;98491.63;5151740;27;20493;-47
2022/11/20 09:20:52;;;;;;;16.98;8.63;;;;;;;-3.86;100.00;98482.84;5151544;27;20050;-47
2022/11/20 09:23:18;;;;;;;14.55;8.32;;;;;;;-3.50;100.00;98475.09;5151720;27;20043;-47
2022/11/20 09:25:45;;;;;;;18.23;8.27;;;;;;;-3.86;100.00;98470.25;5151500;27;20142;-51
2022/11/20 09:28:11;;;;;;;16.52;8.43;;;;;;;-3.69;100.00;98466.28;5151598;27;20095;-47
2022/11/20 09:30:37;;;;;;;11.60;7.43;;;;;;;-3.38;100.00;98467.44;5151520;27;20510;-47
2022/11/20 09:33:06;;;;;;;12.43;7.13;;;;;;;-3.91;100.00;98456.91;5151339;27;20047;-47
2022/11/20 09:35:32;;;;;;;12.40;6.75;;;;;;;-3.90;100.00;98449.66;5151212;27;20501;-49
2022/11/20 09:37:58;;;;;;;16.90;7.43;;;;;;;-3.91;100.00;98445.38;5151295;27;20442;-48
2022/11/20 09:40:28;;;;;;;11.68;6.45;;;;;;;-3.98;100.00;98447.63;5151311;27;20076;-48
2022/11/20 09:42:59;;;;;;;7.47;5.20;;;;;;;-4.45;100.00;98442.00;5151258;27;20133;-48
2022/11/20 09:45:50;;;;;;;10.80;6.30;;;;;;;-4.13;100.00;98443.25;5151314;27;20050;-48
2022/11/20 09:48:36;;;;;;;12.82;6.68;;;;;;;-4.22;100.00;98443.09;5151124;27;20106;-47
2022/11/20 09:51:12;;;;;;;13.15;6.72;;;;;;;-4.10;100.00;98440.81;5151341;27;20089;-49
2022/11/20 09:53:50;;;;;;;11.65;7.30;;;;;;;-4.36;100.00;98447.53;5151150;27;20055;-50
2022/11/20 09:56:19;;;;;;;12.60;6.50;;;;;;;-4.00;100.00;98439.06;5151044;27;20057;-49
2022/11/20 09:58:48;;;;;;;13.07;7.60;;;;;;;-4.13;100.00;98452.09;5151105;27;20089;-50
2022/11/20 10:01:17;;;;;;;13.85;8.18;;;;;;;-3.56;100.00;98462.88;5151015;27;20137;-49
2022/11/20 10:03:54;;;;;;;18.90;6.90;;;;;;;-3.61;100.00;98444.19;5150959;27;20042;-49
2022/11/20 10:06:28;;;;;;;12.57;7.10;;;;;;;-3.72;100.00;98434.72;5151076;27;20429;-47
2022/11/20 10:09:06;;;;;;;16.08;7.55;;;;;;;-3.51;100.00;98430.66;5151226;27;20050;-47
2022/11/20 10:11:43;;;;;;;14.68;7.20;;;;;;;-3.64;100.00;98426.00;5150933;27;20465;-47
2022/11/20 10:14:22;;;;;;;12.50;6.63;;;;;;;-4.08;100.00;98438.63;5150894;27;20101;-52
2022/11/20 10:16:59;;;;;;;13.18;8.00;;;;;;;-3.66;100.00;98417.47;5152922;27;20193;-49
2022/11/20 10:19:42;;;;;;;16.05;7.47;;;;;;;-3.39;100.00;98424.84;5154325;27;20051;-48
2022/11/20 10:22:19;;;;;;;15.55;8.02;;;;;;;-3.34;100.00;98428.25;5154726;27;20206;-47
2022/11/20 10:24:55;;;;;;;16.33;7.85;;;;;;;-3.47;100.00;98436.22;5154362;27;20406;-47
2022/11/20 10:27:52;;;;;;;18.52;8.45;;;;;;;-4.02;100.00;98447.41;5154334;27;20054;-47
2022/11/20 10:30:21;;;;;;;14.57;8.23;;;;;;;-3.58;100.00;98433.69;5154385;27;20046;-47
2022/11/20 10:32:52;;;;;;;12.77;7.35;;;;;;;-3.81;100.00;98429.97;5154146;27;20586;-47
2022/11/20 10:35:24;;;;;;;13.32;7.55;;;;;;;-4.10;100.00;98440.00;5154440;27;20054;-51
2022/11/20 10:37:56;;;;;;;15.88;8.13;;;;;;;-3.77;100.00;98424.84;5154186;27;20073;-48
2022/11/20 10:40:31;;;;;;;16.30;8.70;;;;;;;-4.06;100.00;98427.66;5154493;27;20050;-52
2022/11/20 10:43:01;;;;;;;12.57;7.82;;;;;;;-4.25;100.00;98411.53;5153877;27;20086;-48
2022/11/20 10:45:44;;;;;;;16.38;6.85;;;;;;;-4.19;100.00;98413.09;5154364;27;20054;-46
2022/11/20 10:48:16;;;;;;;20.75;8.85;;;;;;;-4.11;100.00;98411.63;5154169;27;20054;-48
2022/11/20 10:50:58;;;;;;;14.10;7.75;;;;;;;-3.43;100.00;98419.28;5153858;27;20053;-51
2022/11/20 10:53:45;;;;;;;13.25;7.35;;;;;;;-4.31;100.00;98418.81;5154030;27;20166;-51
2022/11/20 10:56:19;;;;;;;14.20;7.70;;;;;;;-3.91;100.00;98413.25;5153866;27;20102;-50
2022/11/20 10:58:55;;;;;;;20.20;8.27;;;;;;;-3.48;100.00;98403.28;5154345;27;20053;-52
2022/11/20 11:01:23;;;;;;;16.80;8.50;;;;;;;-3.07;100.00;98405.28;5153694;27;20058;-49
2022/11/20 11:03:51;;;;;;;12.68;6.63;;;;;;;-4.14;100.00;98409.53;5153684;27;20051;-48
2022/11/20 11:06:25;;;;;;;13.55;7.18;;;;;;;-4.14;100.00;98413.00;5153893;27;20494;-48
2022/11/20 11:08:56;;;;;;;13.65;6.93;;;;;;;-4.14;100.00;98425.59;5153583;27;20043;-47
2022/11/20 11:11:25;;;;;;;12.00;6.88;;;;;;;-4.05;100.00;98429.22;5154075;27;20169;-47
2022/11/20 11:13:52;;;;;;;11.30;6.70;;;;;;;-4.22;100.00;98416.31;5153359;27;20142;-48
2022/11/20 11:16:24;;;;;;;10.32;6.38;;;;;;;-4.35;100.00;98417.81;5153734;27;20505;-47
2022/11/20 11:18:51;;;;;;;11.35;6.45;;;;;;;-3.97;100.00;98409.84;5153464;27;20484;-47
2022/11/20 11:21:24;;;;;;;11.52;6.72;;;;;;;-3.96;100.00;98419.50;5153614;27;20051;-47
2022/11/20 11:23:59;;;;;;;15.67;8.07;;;;;;;-4.01;100.00;98422.22;5153441;27;20051;-46
2022/11/20 11:26:27;;;;;;;12.18;6.97;;;;;;;-3.63;100.00;98423.06;5153603;27;20348;-49
2022/11/20 11:28:55;;;;;;;14.43;6.97;;;;;;;-3.27;100.00;98417.16;5152758;27;20233;-47
2022/11/20 11:31:25;;;;;;;16.20;7.13;;;;;;;-3.73;100.00;98428.56;5153584;27;20050;-50
2022/11/20 11:33:51;;;;;;;15.85;8.68;;;;;;;-3.87;100.00;98420.41;5153569;27;20047;-47